sensor_id;sensor_type;location;lat;lon;timestamp;pressure;altitude;pressure_sealevel;temperature;humidity
42001;BME280;27689;48.390;10.856;2023-03-03T00:02:40;96237.59;;;0.86;100.00
42001;BME280;27689;48.390;10.856;2023-03-03T00:05:24;96228.13;;;0.86;100.00
42001;BME280;27689;48.390;10.856;2023-03-03T00:08:08;96231.94;;;0.95;100.00
42001;BME280;27689;48.390;10.856;2023-03-03T00:10:53;96225.47;;;0.88;100.00
42001;BME280;27689;48.390;10.856;2023-03-03T00:13:53;96228.44;;;0.80;100.00
42001;BME280;27689;48.390;10.856;2023-03-03T00:16:37;96228.97;;;0.71;100.00
42001;BME280;27689;48.390;10.856;2023-03-03T00:19:21;96229.88;;;0.70;100.00
42001;BME280;27689;48.390;10.856;2023-03-03T00:22:14;96230.78;;;0.69;100.00
42001;BME280;27689;48.390;10.856;2023-03-03T00:25:00;96229.38;;;0.63;100.00
42001;BME280;27689;48.390;10.856;2023-03-03T00:28:07;96225.31;;;0.59;100.00
42001;BME280;27689;48.390;10.856;2023-03-03T00:31:00;96216.00;;;0.57;100.00
42001;BME280;27689;48.390;10.856;2023-03-03T00:33:51;96230.63;;;0.56;100.00
42001;BME280;27689;48.390;10.856;2023-03-03T00:36:38;96220.34;;;0.56;100.00
42001;BME280;27689;48.390;10.856;2023-03-03T00:39:38;96230.63;;;0.56;100.00
42001;BME280;27689;48.390;10.856;2023-03-03T00:42:22;96211.25;;;0.49;100.00
42001;BME280;27689;48.390;10.856;2023-03-03T00:45:21;96226.31;;;0.57;100.00
42001;BME280;27689;48.390;10.856;2023-03-03T00:48:20;96235.28;;;0.50;100.00
42001;BME280;27689;48.390;10.856;2023-03-03T00:54:11;96233.38;;;0.53;100.00
42001;BME280;27689;48.390;10.856;2023-03-03T00:56:55;96232.13;;;0.60;100.00
42001;BME280;27689;48.390;10.856;2023-03-03T00:59:39;96232.47;;;0.70;100.00
42001;BME280;27689;48.390;10.856;2023-03-03T01:02:23;96230.88;;;0.67;100.00
42001;BME280;27689;48.390;10.856;2023-03-03T01:05:09;96228.31;;;0.67;100.00
42001;BME280;27689;48.390;10.856;2023-03-03T01:07:55;96231.94;;;0.63;100.00
42001;BME280;27689;48.390;10.856;2023-03-03T01:10:43;96225.72;;;0.67;100.00
42001;BME280;27689;48.390;10.856;2023-03-03T01:13:30;96222.31;;;0.67;100.00
42001;BME280;27689;48.390;10.856;2023-03-03T01:16:15;96214.19;;;0.59;100.00
42001;BME280;27689;48.390;10.856;2023-03-03T01:19:00;96211.09;;;0.52;100.00
42001;BME280;27689;48.390;10.856;2023-03-03T01:21:44;96211.75;;;0.56;100.00
42001;BME280;27689;48.390;10.856;2023-03-03T01:24:28;96207.53;;;0.55;100.00
42001;BME280;27689;48.390;10.856;2023-03-03T01:27:11;96202.53;;;0.52;100.00
42001;BME280;27689;48.390;10.856;2023-03-03T01:29:56;96204.19;;;0.53;100.00
42001;BME280;27689;48.390;10.856;2023-03-03T01:32:40;96202.38;;;0.55;100.00
42001;BME280;27689;48.390;10.856;2023-03-03T01:35:24;96209.03;;;0.59;100.00
42001;BME280;27689;48.390;10.856;2023-03-03T01:38:08;96212.69;;;0.55;100.00
42001;BME280;27689;48.390;10.856;2023-03-03T01:40:54;96210.03;;;0.56;100.00
42001;BME280;27689;48.390;10.856;2023-03-03T01:43:43;96213.00;;;0.64;100.00
42001;BME280;27689;48.390;10.856;2023-03-03T01:46:51;96216.25;;;0.68;100.00
42001;BME280;27689;48.390;10.856;2023-03-03T01:49:43;96210.25;;;0.67;100.00
42001;BME280;27689;48.390;10.856;2023-03-03T01:52:36;96216.00;;;0.73;100.00
42001;BME280;27689;48.390;10.856;2023-03-03T01:55:24;96214.81;;;0.78;100.00
42001;BME280;27689;48.390;10.856;2023-03-03T01:58:19;96213.41;;;0.73;100.00
42001;BME280;27689;48.390;10.856;2023-03-03T02:01:07;96213.59;;;0.69;100.00
42001;BME280;27689;48.390;10.856;2023-03-03T02:03:52;96208.59;;;0.66;100.00
42001;BME280;27689;48.390;10.856;2023-03-03T02:06:39;96207.84;;;0.64;100.00
42001;BME280;27689;48.390;10.856;2023-03-03T02:09:41;96204.50;;;0.78;100.00
42001;BME280;27689;48.390;10.856;2023-03-03T02:12:33;96212.84;;;0.67;100.00
42001;BME280;27689;48.390;10.856;2023-03-03T02:15:20;96202.34;;;0.70;100.00
42001;BME280;27689;48.390;10.856;2023-03-03T02:18:16;96197.13;;;0.72;100.00
42001;BME280;27689;48.390;10.856;2023-03-03T02:21:09;96199.88;;;0.69;100.00
42001;BME280;27689;48.390;10.856;2023-03-03T02:27:03;96190.13;;;0.74;100.00
42001;BME280;27689;48.390;10.856;2023-03-03T02:29:47;96193.03;;;0.84;100.00
42001;BME280;27689;48.390;10.856;2023-03-03T02:32:31;96197.69;;;0.77;100.00
42001;BME280;27689;48.390;10.856;2023-03-03T02:35:28;96191.78;;;0.75;100.00
42001;BME280;27689;48.390;10.856;2023-03-03T02:38:26;96193.94;;;0.83;100.00
42001;BME280;27689;48.390;10.856;2023-03-03T02:46:47;96195.34;;;0.88;100.00
42001;BME280;27689;48.390;10.856;2023-03-03T02:49:33;96198.47;;;0.93;100.00
42001;BME280;27689;48.390;10.856;2023-03-03T02:52:17;96195.69;;;0.82;100.00
42001;BME280;27689;48.390;10.856;2023-03-03T02:55:01;96194.84;;;0.82;100.00
42001;BME280;27689;48.390;10.856;2023-03-03T02:57:45;96187.72;;;0.71;100.00
42001;BME280;27689;48.390;10.856;2023-03-03T03:00:29;96196.53;;;0.67;100.00
42001;BME280;27689;48.390;10.856;2023-03-03T03:03:13;96189.41;;;0.56;100.00
42001;BME280;27689;48.390;10.856;2023-03-03T03:05:57;96187.38;;;0.46;100.00
42001;BME280;27689;48.390;10.856;2023-03-03T03:08:41;96183.16;;;0.45;100.00
42001;BME280;27689;48.390;10.856;2023-03-03T03:11:25;96189.81;;;0.49;100.00
42001;BME280;27689;48.390;10.856;2023-03-03T03:14:11;96189.81;;;0.49;100.00
42001;BME280;27689;48.390;10.856;2023-03-03T03:16:54;96189.97;;;0.46;100.00
42001;BME280;27689;48.390;10.856;2023-03-03T03:19:38;96196.53;;;0.51;100.00
42001;BME280;27689;48.390;10.856;2023-03-03T03:22:22;96193.06;;;0.52;100.00
42001;BME280;27689;48.390;10.856;2023-03-03T03:25:06;96199.63;;;0.58;100.00
42001;BME280;27689;48.390;10.856;2023-03-03T03:27:50;96200.34;;;0.60;100.00
42001;BME280;27689;48.390;10.856;2023-03-03T03:30:34;96202.53;;;0.67;100.00
42001;BME280;27689;48.390;10.856;2023-03-03T03:33:18;96197.44;;;0.66;100.00
42001;BME280;27689;48.390;10.856;2023-03-03T03:36:03;96205.03;;;0.69;100.00
42001;BME280;27689;48.390;10.856;2023-03-03T03:38:47;96201.91;;;0.78;100.00
42001;BME280;27689;48.390;10.856;2023-03-03T03:41:31;96211.16;;;0.82;100.00
42001;BME280;27689;48.390;10.856;2023-03-03T03:44:15;96207.50;;;0.86;100.00
42001;BME280;27689;48.390;10.856;2023-03-03T03:46:59;96208.13;;;0.90;100.00
42001;BME280;27689;48.390;10.856;2023-03-03T03:49:43;96208.06;;;0.91;100.00
42001;BME280;27689;48.390;10.856;2023-03-03T03:52:27;96215.53;;;0.96;100.00
42001;BME280;27689;48.390;10.856;2023-03-03T03:55:10;96212.78;;;0.99;100.00
42001;BME280;27689;48.390;10.856;2023-03-03T03:57:55;96210.69;;;1.05;100.00
42001;BME280;27689;48.390;10.856;2023-03-03T04:00:40;96202.97;;;0.90;100.00
42001;BME280;27689;48.390;10.856;2023-03-03T04:03:25;96218.78;;;0.99;100.00
42001;BME280;27689;48.390;10.856;2023-03-03T04:06:10;96213.53;;;1.01;100.00
42001;BME280;27689;48.390;10.856;2023-03-03T04:08:54;96217.94;;;0.99;100.00
42001;BME280;27689;48.390;10.856;2023-03-03T04:11:37;96202.41;;;1.00;100.00
42001;BME280;27689;48.390;10.856;2023-03-03T04:14:21;96213.25;;;1.05;100.00
42001;BME280;27689;48.390;10.856;2023-03-03T04:17:05;96214.28;;;1.03;100.00
42001;BME280;27689;48.390;10.856;2023-03-03T04:19:52;96201.84;;;1.10;100.00
42001;BME280;27689;48.390;10.856;2023-03-03T04:22:36;96207.84;;;1.10;100.00
42001;BME280;27689;48.390;10.856;2023-03-03T04:25:20;96204.59;;;1.06;100.00
42001;BME280;27689;48.390;10.856;2023-03-03T04:28:04;96211.09;;;1.14;100.00
42001;BME280;27689;48.390;10.856;2023-03-03T04:30:48;96201.84;;;1.10;100.00
42001;BME280;27689;48.390;10.856;2023-03-03T04:33:32;96208.50;;;1.14;100.00
42001;BME280;27689;48.390;10.856;2023-03-03T04:36:16;96211.47;;;1.22;100.00
42001;BME280;27689;48.390;10.856;2023-03-03T04:39:01;96201.16;;;1.22;100.00
42001;BME280;27689;48.390;10.856;2023-03-03T04:41:45;96202.47;;;1.29;100.00
42001;BME280;27689;48.390;10.856;2023-03-03T04:44:29;96204.31;;;1.27;100.00
42001;BME280;27689;48.390;10.856;2023-03-03T04:47:14;96209.13;;;1.33;100.00
42001;BME280;27689;48.390;10.856;2023-03-03T04:49:58;96207.97;;;1.23;100.00
42001;BME280;27689;48.390;10.856;2023-03-03T04:52:43;96203.56;;;1.25;100.00
42001;BME280;27689;48.390;10.856;2023-03-03T04:55:27;96198.31;;;1.26;100.00
42001;BME280;27689;48.390;10.856;2023-03-03T04:58:11;96196.41;;;1.30;100.00
42001;BME280;27689;48.390;10.856;2023-03-03T05:00:56;96200.44;;;1.34;100.00
42001;BME280;27689;48.390;10.856;2023-03-03T05:03:40;96194.38;;;1.35;100.00
42001;BME280;27689;48.390;10.856;2023-03-03T05:06:24;96199.44;;;1.36;100.00
42001;BME280;27689;48.390;10.856;2023-03-03T05:09:08;96198.59;;;1.36;100.00
42001;BME280;27689;48.390;10.856;2023-03-03T05:11:52;96197.69;;;1.37;100.00
42001;BME280;27689;48.390;10.856;2023-03-03T05:14:36;96202.84;;;1.37;100.00
42001;BME280;27689;48.390;10.856;2023-03-03T05:17:20;96204.34;;;1.41;100.00
42001;BME280;27689;48.390;10.856;2023-03-03T05:20:04;96221.31;;;1.45;100.00
42001;BME280;27689;48.390;10.856;2023-03-03T05:22:51;96214.31;;;1.47;100.00
42001;BME280;27689;48.390;10.856;2023-03-03T05:25:35;96211.75;;;1.47;100.00
42001;BME280;27689;48.390;10.856;2023-03-03T05:28:19;96203.34;;;1.44;100.00
42001;BME280;27689;48.390;10.856;2023-03-03T05:31:03;96213.59;;;1.45;100.00
42001;BME280;27689;48.390;10.856;2023-03-03T05:33:47;96217.63;;;1.49;100.00
42001;BME280;27689;48.390;10.856;2023-03-03T05:36:31;96220.31;;;1.48;100.00
42001;BME280;27689;48.390;10.856;2023-03-03T05:39:15;96229.63;;;1.50;100.00
42001;BME280;27689;48.390;10.856;2023-03-03T05:42:00;96227.94;;;1.49;100.00
42001;BME280;27689;48.390;10.856;2023-03-03T05:44:43;96223.00;;;1.46;100.00
42001;BME280;27689;48.390;10.856;2023-03-03T05:47:28;96236.44;;;1.51;100.00
42001;BME280;27689;48.390;10.856;2023-03-03T05:50:12;96232.19;;;1.50;100.00
42001;BME280;27689;48.390;10.856;2023-03-03T05:52:56;96236.75;;;1.61;100.00
42001;BME280;27689;48.390;10.856;2023-03-03T05:55:41;96247.00;;;1.62;100.00
42001;BME280;27689;48.390;10.856;2023-03-03T05:58:25;96244.75;;;1.56;100.00
42001;BME280;27689;48.390;10.856;2023-03-03T06:01:10;96246.50;;;1.56;100.00
42001;BME280;27689;48.390;10.856;2023-03-03T06:03:54;96242.94;;;1.58;100.00
42001;BME280;27689;48.390;10.856;2023-03-03T06:06:38;96239.59;;;1.56;100.00
42001;BME280;27689;48.390;10.856;2023-03-03T06:09:22;96252.25;;;1.61;100.00
42001;BME280;27689;48.390;10.856;2023-03-03T06:12:06;96253.78;;;1.63;100.00
42001;BME280;27689;48.390;10.856;2023-03-03T06:14:50;96259.69;;;1.65;100.00
42001;BME280;27689;48.390;10.856;2023-03-03T06:17:34;96256.66;;;1.59;100.00
42001;BME280;27689;48.390;10.856;2023-03-03T06:20:18;96264.03;;;1.65;100.00
42001;BME280;27689;48.390;10.856;2023-03-03T06:23:02;96263.13;;;1.66;100.00
42001;BME280;27689;48.390;10.856;2023-03-03T06:25:47;96261.19;;;1.69;100.00
42001;BME280;27689;48.390;10.856;2023-03-03T06:28:31;96264.88;;;1.65;100.00
42001;BME280;27689;48.390;10.856;2023-03-03T06:31:15;96266.53;;;1.66;100.00
42001;BME280;27689;48.390;10.856;2023-03-03T06:33:58;96270.59;;;1.70;100.00
42001;BME280;27689;48.390;10.856;2023-03-03T06:36:43;96270.69;;;1.69;100.00
42001;BME280;27689;48.390;10.856;2023-03-03T06:39:27;96279.53;;;1.65;100.00
42001;BME280;27689;48.390;10.856;2023-03-03T06:42:11;96282.84;;;1.67;100.00
42001;BME280;27689;48.390;10.856;2023-03-03T06:44:55;96280.75;;;1.73;100.00
42001;BME280;27689;48.390;10.856;2023-03-03T06:47:40;96287.22;;;1.81;100.00
42001;BME280;27689;48.390;10.856;2023-03-03T06:50:23;96286.31;;;1.82;100.00
42001;BME280;27689;48.390;10.856;2023-03-03T06:53:13;96291.28;;;1.85;100.00
42001;BME280;27689;48.390;10.856;2023-03-03T06:55:57;96300.34;;;1.77;100.00
42001;BME280;27689;48.390;10.856;2023-03-03T06:58:41;96301.72;;;1.83;100.00
42001;BME280;27689;48.390;10.856;2023-03-03T07:01:27;96291.56;;;1.80;100.00
42001;BME280;27689;48.390;10.856;2023-03-03T07:04:26;96298.13;;;1.86;100.00
42001;BME280;27689;48.390;10.856;2023-03-03T07:07:20;96300.97;;;1.81;100.00
42001;BME280;27689;48.390;10.856;2023-03-03T07:10:26;96297.75;;;1.77;100.00
42001;BME280;27689;48.390;10.856;2023-03-03T07:16:10;96306.63;;;1.88;100.00
42001;BME280;27689;48.390;10.856;2023-03-03T07:18:59;96301.81;;;1.82;100.00
42001;BME280;27689;48.390;10.856;2023-03-03T07:21:44;96300.72;;;2.00;100.00
42001;BME280;27689;48.390;10.856;2023-03-03T07:24:29;96305.31;;;1.95;100.00
42001;BME280;27689;48.390;10.856;2023-03-03T07:27:30;96305.31;;;1.95;100.00
42001;BME280;27689;48.390;10.856;2023-03-03T07:30:23;96307.28;;;1.91;100.00
42001;BME280;27689;48.390;10.856;2023-03-03T07:33:38;96319.75;;;1.99;100.00
42001;BME280;27689;48.390;10.856;2023-03-03T07:36:35;96312.44;;;1.91;100.00
42001;BME280;27689;48.390;10.856;2023-03-03T07:44:57;96314.75;;;1.96;100.00
42001;BME280;27689;48.390;10.856;2023-03-03T07:47:41;96322.59;;;2.08;100.00
42001;BME280;27689;48.390;10.856;2023-03-03T07:50:25;96311.63;;;2.05;100.00
42001;BME280;27689;48.390;10.856;2023-03-03T07:53:30;96312.72;;;2.01;100.00
42001;BME280;27689;48.390;10.856;2023-03-03T07:56:27;96312.00;;;1.99;100.00
42001;BME280;27689;48.390;10.856;2023-03-03T07:59:20;96307.00;;;2.10;100.00
42001;BME280;27689;48.390;10.856;2023-03-03T08:02:15;96313.09;;;2.09;100.00
42001;BME280;27689;48.390;10.856;2023-03-03T08:08:23;96322.50;;;2.10;100.00
42001;BME280;27689;48.390;10.856;2023-03-03T08:11:12;96320.00;;;2.08;100.00
42001;BME280;27689;48.390;10.856;2023-03-03T08:13:56;96320.44;;;2.31;100.00
42001;BME280;27689;48.390;10.856;2023-03-03T08:16:40;96315.16;;;2.18;100.00
42001;BME280;27689;48.390;10.856;2023-03-03T08:19:25;96322.91;;;2.18;100.00
42001;BME280;27689;48.390;10.856;2023-03-03T08:22:30;96325.13;;;2.24;100.00
42001;BME280;27689;48.390;10.856;2023-03-03T08:25:16;96321.00;;;2.36;100.00
42001;BME280;27689;48.390;10.856;2023-03-03T08:27:59;96323.38;;;2.39;100.00
42001;BME280;27689;48.390;10.856;2023-03-03T08:30:44;96330.88;;;2.43;100.00
42001;BME280;27689;48.390;10.856;2023-03-03T08:33:28;96335.47;;;2.38;100.00
42001;BME280;27689;48.390;10.856;2023-03-03T08:36:12;96333.84;;;2.37;100.00
42001;BME280;27689;48.390;10.856;2023-03-03T08:38:57;96335.94;;;2.45;100.00
42001;BME280;27689;48.390;10.856;2023-03-03T08:41:40;96322.53;;;2.53;100.00
42001;BME280;27689;48.390;10.856;2023-03-03T08:44:26;96331.59;;;2.74;100.00
42001;BME280;27689;48.390;10.856;2023-03-03T08:47:10;96333.22;;;3.03;100.00
42001;BME280;27689;48.390;10.856;2023-03-03T08:49:54;96342.03;;;3.28;100.00
42001;BME280;27689;48.390;10.856;2023-03-03T08:52:39;96339.50;;;3.40;98.98
42001;BME280;27689;48.390;10.856;2023-03-03T08:55:23;96344.00;;;3.51;98.17
42001;BME280;27689;48.390;10.856;2023-03-03T08:58:06;96346.94;;;3.72;98.79
42001;BME280;27689;48.390;10.856;2023-03-03T09:00:50;96337.88;;;3.92;96.95
42001;BME280;27689;48.390;10.856;2023-03-03T09:03:35;96341.66;;;4.13;98.40
42001;BME280;27689;48.390;10.856;2023-03-03T09:06:19;96353.28;;;4.45;96.19
42001;BME280;27689;48.390;10.856;2023-03-03T09:09:03;96349.44;;;4.64;93.33
42001;BME280;27689;48.390;10.856;2023-03-03T09:11:47;96343.00;;;4.82;94.80
42001;BME280;27689;48.390;10.856;2023-03-03T09:14:31;96349.50;;;5.00;92.68
42001;BME280;27689;48.390;10.856;2023-03-03T09:17:30;96347.94;;;5.10;90.24
42001;BME280;27689;48.390;10.856;2023-03-03T09:23:33;96350.94;;;5.17;87.31
42001;BME280;27689;48.390;10.856;2023-03-03T09:32:05;96350.59;;;5.21;90.34
42001;BME280;27689;48.390;10.856;2023-03-03T09:34:53;96367.41;;;5.28;87.85
42001;BME280;27689;48.390;10.856;2023-03-03T09:37:37;96370.75;;;5.30;90.24
42001;BME280;27689;48.390;10.856;2023-03-03T09:43:36;96362.75;;;5.21;88.80
42001;BME280;27689;48.390;10.856;2023-03-03T09:49:33;96359.16;;;5.47;89.55
42001;BME280;27689;48.390;10.856;2023-03-03T09:58:34;96359.75;;;5.51;88.73
42001;BME280;27689;48.390;10.856;2023-03-03T10:01:59;96367.66;;;5.73;86.12
42001;BME280;27689;48.390;10.856;2023-03-03T10:08:18;96365.56;;;6.02;85.74
42001;BME280;27689;48.390;10.856;2023-03-03T10:14:14;96360.31;;;6.26;84.82
42001;BME280;27689;48.390;10.856;2023-03-03T10:17:18;96361.16;;;6.26;82.21
42001;BME280;27689;48.390;10.856;2023-03-03T10:23:37;96365.06;;;6.32;85.96
42001;BME280;27689;48.390;10.856;2023-03-03T10:29:54;96368.41;;;6.45;81.86
42001;BME280;27689;48.390;10.856;2023-03-03T10:35:44;96369.59;;;6.41;81.96
42001;BME280;27689;48.390;10.856;2023-03-03T10:47:39;96376.50;;;6.76;83.38
42001;BME280;27689;48.390;10.856;2023-03-03T10:50:32;96363.59;;;6.74;80.50
42001;BME280;27689;48.390;10.856;2023-03-03T10:53:31;96374.41;;;6.92;80.75
42001;BME280;27689;48.390;10.856;2023-03-03T10:56:44;96370.13;;;6.91;78.27
42001;BME280;27689;48.390;10.856;2023-03-03T11:02:42;96380.16;;;6.73;78.61
42001;BME280;27689;48.390;10.856;2023-03-03T11:05:42;96373.78;;;6.66;79.05
42001;BME280;27689;48.390;10.856;2023-03-03T11:14:28;96368.47;;;7.23;79.76
42001;BME280;27689;48.390;10.856;2023-03-03T11:17:56;96367.25;;;7.38;80.05
42001;BME280;27689;48.390;10.856;2023-03-03T11:20:56;96364.97;;;7.45;78.13
42001;BME280;27689;48.390;10.856;2023-03-03T11:24:22;96369.38;;;7.56;77.17
42001;BME280;27689;48.390;10.856;2023-03-03T11:27:38;96365.66;;;7.58;76.53
42001;BME280;27689;48.390;10.856;2023-03-03T11:30:49;96354.19;;;7.50;76.49
42001;BME280;27689;48.390;10.856;2023-03-03T11:33:46;96354.94;;;7.29;76.59
42001;BME280;27689;48.390;10.856;2023-03-03T11:36:42;96355.03;;;7.50;77.53
42001;BME280;27689;48.390;10.856;2023-03-03T11:39:28;96344.13;;;7.56;75.37
42001;BME280;27689;48.390;10.856;2023-03-03T11:45:01;96348.84;;;7.62;71.40
42001;BME280;27689;48.390;10.856;2023-03-03T11:47:56;96346.94;;;7.64;73.02
42001;BME280;27689;48.390;10.856;2023-03-03T11:50:51;96344.16;;;7.77;72.31
42001;BME280;27689;48.390;10.856;2023-03-03T11:56:44;96331.94;;;7.77;67.56
42001;BME280;27689;48.390;10.856;2023-03-03T12:02:58;96330.69;;;7.61;69.72
42001;BME280;27689;48.390;10.856;2023-03-03T12:09:00;96336.88;;;7.92;69.72
42001;BME280;27689;48.390;10.856;2023-03-03T12:14:58;96330.28;;;8.08;68.84
42001;BME280;27689;48.390;10.856;2023-03-03T12:17:54;96332.19;;;8.06;65.96
42001;BME280;27689;48.390;10.856;2023-03-03T12:23:44;96324.00;;;8.11;69.20
42001;BME280;27689;48.390;10.856;2023-03-03T12:26:58;96321.72;;;8.38;69.97
42001;BME280;27689;48.390;10.856;2023-03-03T12:42:42;96315.19;;;9.64;60.75
42001;BME280;27689;48.390;10.856;2023-03-03T12:51:33;96296.47;;;10.07;59.23
42001;BME280;27689;48.390;10.856;2023-03-03T13:00:26;96291.97;;;10.56;59.73
42001;BME280;27689;48.390;10.856;2023-03-03T13:06:22;96287.00;;;10.63;57.62
42001;BME280;27689;48.390;10.856;2023-03-03T13:09:31;96296.69;;;10.52;55.81
42001;BME280;27689;48.390;10.856;2023-03-03T13:12:27;96288.84;;;10.52;56.34
42001;BME280;27689;48.390;10.856;2023-03-03T13:26:56;96297.22;;;10.56;57.97
42001;BME280;27689;48.390;10.856;2023-03-03T13:29:58;96292.84;;;10.47;56.54
42001;BME280;27689;48.390;10.856;2023-03-03T13:32:48;96293.75;;;10.55;57.84
42001;BME280;27689;48.390;10.856;2023-03-03T13:35:44;96282.44;;;10.65;56.95
42001;BME280;27689;48.390;10.856;2023-03-03T13:38:31;96287.38;;;10.77;55.28
42001;BME280;27689;48.390;10.856;2023-03-03T13:41:26;96280.06;;;10.71;55.02
42001;BME280;27689;48.390;10.856;2023-03-03T13:44:30;96279.31;;;10.51;55.34
42001;BME280;27689;48.390;10.856;2023-03-03T13:47:39;96283.88;;;10.40;55.99
42001;BME280;27689;48.390;10.856;2023-03-03T13:50:50;96279.63;;;10.29;56.15
42001;BME280;27689;48.390;10.856;2023-03-03T14:05:49;96264.75;;;10.30;56.32
42001;BME280;27689;48.390;10.856;2023-03-03T14:12:03;96255.41;;;9.98;56.14
42001;BME280;27689;48.390;10.856;2023-03-03T14:15:06;96256.41;;;9.78;56.30
42001;BME280;27689;48.390;10.856;2023-03-03T14:21:30;96249.75;;;9.83;58.13
42001;BME280;27689;48.390;10.856;2023-03-03T14:24:18;96253.91;;;9.86;57.77
42001;BME280;27689;48.390;10.856;2023-03-03T14:27:22;96246.03;;;10.05;57.69
42001;BME280;27689;48.390;10.856;2023-03-03T14:38:44;96249.50;;;9.77;58.26
42001;BME280;27689;48.390;10.856;2023-03-03T14:41:38;96250.31;;;9.87;58.98
42001;BME280;27689;48.390;10.856;2023-03-03T14:44:34;96250.31;;;9.97;59.16
42001;BME280;27689;48.390;10.856;2023-03-03T14:47:23;96243.13;;;9.99;58.47
42001;BME280;27689;48.390;10.856;2023-03-03T14:50:38;96246.72;;;10.07;57.63
42001;BME280;27689;48.390;10.856;2023-03-03T14:53:37;96239.81;;;9.97;57.49
42001;BME280;27689;48.390;10.856;2023-03-03T14:59:22;96244.81;;;9.80;58.82
42001;BME280;27689;48.390;10.856;2023-03-03T15:05:21;96239.44;;;9.72;58.29
42001;BME280;27689;48.390;10.856;2023-03-03T15:10:51;96247.44;;;9.61;60.49
42001;BME280;27689;48.390;10.856;2023-03-03T15:13:35;96241.53;;;9.59;60.46
42001;BME280;27689;48.390;10.856;2023-03-03T15:16:23;96249.50;;;9.67;61.45
42001;BME280;27689;48.390;10.856;2023-03-03T15:19:16;96247.56;;;9.69;61.65
42001;BME280;27689;48.390;10.856;2023-03-03T15:22:56;96246.47;;;9.72;60.57
42001;BME280;27689;48.390;10.856;2023-03-03T15:25:59;96246.34;;;9.64;60.45
42001;BME280;27689;48.390;10.856;2023-03-03T15:32:26;96252.13;;;9.48;60.53
42001;BME280;27689;48.390;10.856;2023-03-03T15:38:24;96249.75;;;9.35;60.63
42001;BME280;27689;48.390;10.856;2023-03-03T15:41:24;96248.66;;;9.18;59.95
42001;BME280;27689;48.390;10.856;2023-03-03T15:44:30;96252.88;;;9.10;60.65
42001;BME280;27689;48.390;10.856;2023-03-03T15:53:32;96252.47;;;9.05;62.06
42001;BME280;27689;48.390;10.856;2023-03-03T15:59:38;96251.44;;;8.87;61.96
42001;BME280;27689;48.390;10.856;2023-03-03T16:02:41;96252.66;;;8.82;62.36
42001;BME280;27689;48.390;10.856;2023-03-03T16:08:39;96261.00;;;8.76;63.49
42001;BME280;27689;48.390;10.856;2023-03-03T16:11:48;96263.78;;;8.75;63.73
42001;BME280;27689;48.390;10.856;2023-03-03T16:17:52;96266.88;;;8.59;62.95
42001;BME280;27689;48.390;10.856;2023-03-03T16:23:58;96262.50;;;8.60;64.61
42001;BME280;27689;48.390;10.856;2023-03-03T16:26:58;96274.28;;;8.54;65.17
42001;BME280;27689;48.390;10.856;2023-03-03T16:30:02;96270.38;;;8.48;65.38
42001;BME280;27689;48.390;10.856;2023-03-03T16:32:55;96278.63;;;8.44;65.76
42001;BME280;27689;48.390;10.856;2023-03-03T16:35:47;96279.13;;;8.38;66.01
42001;BME280;27689;48.390;10.856;2023-03-03T16:38:40;96268.34;;;8.31;65.94
42001;BME280;27689;48.390;10.856;2023-03-03T16:41:44;96271.09;;;8.30;65.72
42001;BME280;27689;48.390;10.856;2023-03-03T16:50:58;96297.25;;;7.98;67.75
42001;BME280;27689;48.390;10.856;2023-03-03T16:54:04;96295.50;;;7.87;68.07
42001;BME280;27689;48.390;10.856;2023-03-03T16:59:49;96316.00;;;7.71;68.80
42001;BME280;27689;48.390;10.856;2023-03-03T17:02:43;96314.22;;;7.60;68.86
42001;BME280;27689;48.390;10.856;2023-03-03T17:05:43;96311.78;;;7.48;68.72
42001;BME280;27689;48.390;10.856;2023-03-03T17:08:56;96317.63;;;7.40;68.92
42001;BME280;27689;48.390;10.856;2023-03-03T17:12:12;96317.94;;;6.92;69.85
42001;BME280;27689;48.390;10.856;2023-03-03T17:15:08;96322.66;;;6.87;72.41
42001;BME280;27689;48.390;10.856;2023-03-03T17:18:09;96334.38;;;6.93;71.90
42001;BME280;27689;48.390;10.856;2023-03-03T17:20:59;96336.16;;;6.92;71.61
42001;BME280;27689;48.390;10.856;2023-03-03T17:23:53;96334.03;;;6.86;71.48
42001;BME280;27689;48.390;10.856;2023-03-03T17:33:17;96341.13;;;6.62;72.18
42001;BME280;27689;48.390;10.856;2023-03-03T17:36:45;96345.72;;;6.58;73.42
42001;BME280;27689;48.390;10.856;2023-03-03T17:45:59;96366.81;;;6.20;82.84
42001;BME280;27689;48.390;10.856;2023-03-03T17:58:46;96373.59;;;5.99;84.54
42001;BME280;27689;48.390;10.856;2023-03-03T18:14:52;96373.91;;;5.71;80.64
42001;BME280;27689;48.390;10.856;2023-03-03T18:18:04;96382.38;;;5.61;80.60
42001;BME280;27689;48.390;10.856;2023-03-03T18:20:57;96387.38;;;5.52;80.50
42001;BME280;27689;48.390;10.856;2023-03-03T18:23:44;96386.66;;;5.50;81.72
42001;BME280;27689;48.390;10.856;2023-03-03T18:26:40;96393.97;;;5.45;81.73
42001;BME280;27689;48.390;10.856;2023-03-03T18:29:27;96384.66;;;5.29;83.39
42001;BME280;27689;48.390;10.856;2023-03-03T18:32:20;96391.72;;;5.27;83.69
42001;BME280;27689;48.390;10.856;2023-03-03T18:35:35;96391.44;;;5.19;82.47
42001;BME280;27689;48.390;10.856;2023-03-03T18:38:27;96396.75;;;5.05;82.25
42001;BME280;27689;48.390;10.856;2023-03-03T18:41:25;96395.00;;;4.93;82.18
42001;BME280;27689;48.390;10.856;2023-03-03T18:44:29;96403.44;;;4.84;83.72
42001;BME280;27689;48.390;10.856;2023-03-03T18:47:13;96404.16;;;4.73;84.05
42001;BME280;27689;48.390;10.856;2023-03-03T18:50:14;96408.00;;;4.68;83.95
42001;BME280;27689;48.390;10.856;2023-03-03T18:53:28;96412.88;;;4.59;83.21
42001;BME280;27689;48.390;10.856;2023-03-03T19:02:33;96400.88;;;4.32;84.11
42001;BME280;27689;48.390;10.856;2023-03-03T19:05:25;96422.16;;;4.24;84.17
42001;BME280;27689;48.390;10.856;2023-03-03T19:11:36;96423.34;;;4.06;84.28